sensor_id;sensor_type;location;lat;lon;timestamp;temperature;humidity
1005;DHT22;491;53.480;10.174;2022-11-15T00:00:46;6.00;99.90
1005;DHT22;491;53.480;10.174;2022-11-15T00:03:21;6.00;99.90
1005;DHT22;491;53.480;10.174;2022-11-15T00:05:47;6.00;99.90
1005;DHT22;491;53.480;10.174;2022-11-15T00:08:13;6.10;99.90
1005;DHT22;491;53.480;10.174;2022-11-15T00:10:38;6.10;99.90
1005;DHT22;491;53.480;10.174;2022-11-15T00:13:14;6.10;99.90
1005;DHT22;491;53.480;10.174;2022-11-15T00:15:40;6.10;99.90
1005;DHT22;491;53.480;10.174;2022-11-15T00:18:11;6.10;99.90
1005;DHT22;491;53.480;10.174;2022-11-15T00:20:37;6.00;99.90
1005;DHT22;491;53.480;10.174;2022-11-15T00:23:03;6.10;99.90
1005;DHT22;491;53.480;10.174;2022-11-15T00:25:29;6.10;99.90
1005;DHT22;491;53.480;10.174;2022-11-15T00:27:56;6.10;99.90
1005;DHT22;491;53.480;10.174;2022-11-15T00:30:22;6.10;99.90
1005;DHT22;491;53.480;10.174;2022-11-15T00:32:47;6.00;99.90
1005;DHT22;491;53.480;10.174;2022-11-15T00:35:13;6.00;99.90
1005;DHT22;491;53.480;10.174;2022-11-15T00:37:38;6.00;99.90
1005;DHT22;491;53.480;10.174;2022-11-15T00:40:04;5.90;99.90
1005;DHT22;491;53.480;10.174;2022-11-15T00:42:30;5.90;99.90
1005;DHT22;491;53.480;10.174;2022-11-15T00:44:55;5.90;99.90
1005;DHT22;491;53.480;10.174;2022-11-15T00:47:21;5.90;99.90
1005;DHT22;491;53.480;10.174;2022-11-15T00:49:46;5.90;99.90
1005;DHT22;491;53.480;10.174;2022-11-15T00:52:12;6.00;99.90
1005;DHT22;491;53.480;10.174;2022-11-15T00:54:37;6.00;99.90
1005;DHT22;491;53.480;10.174;2022-11-15T00:57:03;6.00;99.90
1005;DHT22;491;53.480;10.174;2022-11-15T00:59:29;6.00;99.90
1005;DHT22;491;53.480;10.174;2022-11-15T01:01:54;6.00;99.90
1005;DHT22;491;53.480;10.174;2022-11-15T01:04:20;6.10;99.90
1005;DHT22;491;53.480;10.174;2022-11-15T01:06:45;6.00;99.90
1005;DHT22;491;53.480;10.174;2022-11-15T01:09:13;6.00;99.90
1005;DHT22;491;53.480;10.174;2022-11-15T01:11:39;6.00;99.90
1005;DHT22;491;53.480;10.174;2022-11-15T01:14:05;6.00;99.90
1005;DHT22;491;53.480;10.174;2022-11-15T01:16:30;6.00;99.90
1005;DHT22;491;53.480;10.174;2022-11-15T01:18:56;5.80;99.90
1005;DHT22;491;53.480;10.174;2022-11-15T01:21:21;5.80;99.90
1005;DHT22;491;53.480;10.174;2022-11-15T01:23:47;5.70;99.90
1005;DHT22;491;53.480;10.174;2022-11-15T01:26:14;5.70;99.90
1005;DHT22;491;53.480;10.174;2022-11-15T01:28:41;5.70;99.90
1005;DHT22;491;53.480;10.174;2022-11-15T01:31:17;5.60;99.90
1005;DHT22;491;53.480;10.174;2022-11-15T01:33:43;5.60;99.90
1005;DHT22;491;53.480;10.174;2022-11-15T01:36:18;5.60;99.90
1005;DHT22;491;53.480;10.174;2022-11-15T01:38:43;5.50;99.90
1005;DHT22;491;53.480;10.174;2022-11-15T01:41:25;5.50;99.90
1005;DHT22;491;53.480;10.174;2022-11-15T01:46:44;5.40;99.90
1005;DHT22;491;53.480;10.174;2022-11-15T01:49:15;5.40;99.90
1005;DHT22;491;53.480;10.174;2022-11-15T01:51:42;5.40;99.90
1005;DHT22;491;53.480;10.174;2022-11-15T01:54:10;5.40;99.90
1005;DHT22;491;53.480;10.174;2022-11-15T01:56:43;5.40;99.90
1005;DHT22;491;53.480;10.174;2022-11-15T01:59:10;5.30;99.90
1005;DHT22;491;53.480;10.174;2022-11-15T02:01:39;5.20;99.90
1005;DHT22;491;53.480;10.174;2022-11-15T02:04:21;5.20;99.90
1005;DHT22;491;53.480;10.174;2022-11-15T02:06:48;5.20;99.90
1005;DHT22;491;53.480;10.174;2022-11-15T02:09:14;5.20;99.90
1005;DHT22;491;53.480;10.174;2022-11-15T02:11:40;5.20;99.90
1005;DHT22;491;53.480;10.174;2022-11-15T02:14:07;5.10;99.90
1005;DHT22;491;53.480;10.174;2022-11-15T02:19:34;5.10;99.90
1005;DHT22;491;53.480;10.174;2022-11-15T02:24:57;5.20;99.90
1005;DHT22;491;53.480;10.174;2022-11-15T02:32:57;5.10;99.90
1005;DHT22;491;53.480;10.174;2022-11-15T02:35:38;5.10;99.90
1005;DHT22;491;53.480;10.174;2022-11-15T02:38:34;5.00;99.90
1005;DHT22;491;53.480;10.174;2022-11-15T02:41:30;5.00;99.90
1005;DHT22;491;53.480;10.174;2022-11-15T02:44:02;5.00;99.90
1005;DHT22;491;53.480;10.174;2022-11-15T02:46:57;4.90;99.90
1005;DHT22;491;53.480;10.174;2022-11-15T02:49:51;4.90;99.90
1005;DHT22;491;53.480;10.174;2022-11-15T02:52:22;4.90;99.90
1005;DHT22;491;53.480;10.174;2022-11-15T02:54:58;4.90;99.90
1005;DHT22;491;53.480;10.174;2022-11-15T02:57:51;4.90;99.90
1005;DHT22;491;53.480;10.174;2022-11-15T03:00:20;5.00;99.90
1005;DHT22;491;53.480;10.174;2022-11-15T03:03:18;4.90;99.90
1005;DHT22;491;53.480;10.174;2022-11-15T03:06:35;5.00;99.90
1005;DHT22;491;53.480;10.174;2022-11-15T03:08:55;4.90;99.90
1005;DHT22;491;53.480;10.174;2022-11-15T03:11:23;4.90;99.90
1005;DHT22;491;53.480;10.174;2022-11-15T03:16:34;5.00;99.90
1005;DHT22;491;53.480;10.174;2022-11-15T03:21:43;5.30;99.90
1005;DHT22;491;53.480;10.174;2022-11-15T03:24:11;5.30;99.90
1005;DHT22;491;53.480;10.174;2022-11-15T03:26:38;5.30;99.90
1005;DHT22;491;53.480;10.174;2022-11-15T03:29:16;5.30;99.90
1005;DHT22;491;53.480;10.174;2022-11-15T03:31:51;5.30;99.90
1005;DHT22;491;53.480;10.174;2022-11-15T03:34:39;5.40;99.90
1005;DHT22;491;53.480;10.174;2022-11-15T03:37:07;5.40;99.90
1005;DHT22;491;53.480;10.174;2022-11-15T03:39:34;5.40;99.90
1005;DHT22;491;53.480;10.174;2022-11-15T03:42:40;5.40;99.90
1005;DHT22;491;53.480;10.174;2022-11-15T03:47:35;5.40;99.90
1005;DHT22;491;53.480;10.174;2022-11-15T03:50:09;5.50;99.90
1005;DHT22;491;53.480;10.174;2022-11-15T03:52:36;5.50;99.90
1005;DHT22;491;53.480;10.174;2022-11-15T03:55:03;5.50;99.90
1005;DHT22;491;53.480;10.174;2022-11-15T03:57:30;5.50;99.90
1005;DHT22;491;53.480;10.174;2022-11-15T03:59:55;5.50;99.90
1005;DHT22;491;53.480;10.174;2022-11-15T04:02:21;5.50;99.90
1005;DHT22;491;53.480;10.174;2022-11-15T04:04:46;5.50;99.90
1005;DHT22;491;53.480;10.174;2022-11-15T04:07:12;5.50;99.90
1005;DHT22;491;53.480;10.174;2022-11-15T04:09:37;5.50;99.90
1005;DHT22;491;53.480;10.174;2022-11-15T04:12:23;5.50;99.90
1005;DHT22;491;53.480;10.174;2022-11-15T04:14:56;5.50;99.90
1005;DHT22;491;53.480;10.174;2022-11-15T04:17:49;5.50;99.90
1005;DHT22;491;53.480;10.174;2022-11-15T04:20:20;5.50;99.90
1005;DHT22;491;53.480;10.174;2022-11-15T04:23:11;5.60;99.90
1005;DHT22;491;53.480;10.174;2022-11-15T04:26:00;5.40;99.90
1005;DHT22;491;53.480;10.174;2022-11-15T04:28:26;5.50;99.90
1005;DHT22;491;53.480;10.174;2022-11-15T04:30:55;5.50;99.90
1005;DHT22;491;53.480;10.174;2022-11-15T04:33:21;5.60;99.90
1005;DHT22;491;53.480;10.174;2022-11-15T04:35:47;5.70;99.90
1005;DHT22;491;53.480;10.174;2022-11-15T04:38:34;5.80;99.90
1005;DHT22;491;53.480;10.174;2022-11-15T04:41:00;5.90;99.90
1005;DHT22;491;53.480;10.174;2022-11-15T04:43:25;6.00;99.90
1005;DHT22;491;53.480;10.174;2022-11-15T04:45:51;6.00;99.90
1005;DHT22;491;53.480;10.174;2022-11-15T04:48:19;6.10;99.90
1005;DHT22;491;53.480;10.174;2022-11-15T04:50:47;6.10;99.90
1005;DHT22;491;53.480;10.174;2022-11-15T04:53:12;6.20;99.90
1005;DHT22;491;53.480;10.174;2022-11-15T04:55:38;6.20;99.90
1005;DHT22;491;53.480;10.174;2022-11-15T04:58:03;6.20;99.90
1005;DHT22;491;53.480;10.174;2022-11-15T05:00:29;6.30;99.90
1005;DHT22;491;53.480;10.174;2022-11-15T05:02:56;6.30;99.90
1005;DHT22;491;53.480;10.174;2022-11-15T05:05:40;6.30;99.90
1005;DHT22;491;53.480;10.174;2022-11-15T05:08:06;6.30;99.90
1005;DHT22;491;53.480;10.174;2022-11-15T05:10:31;6.40;99.90
1005;DHT22;491;53.480;10.174;2022-11-15T05:12:57;6.50;99.90
1005;DHT22;491;53.480;10.174;2022-11-15T05:15:22;6.50;99.90
1005;DHT22;491;53.480;10.174;2022-11-15T05:17:48;6.60;99.90
1005;DHT22;491;53.480;10.174;2022-11-15T05:20:13;6.60;99.90
1005;DHT22;491;53.480;10.174;2022-11-15T05:22:39;6.50;99.90
1005;DHT22;491;53.480;10.174;2022-11-15T05:25:05;6.50;99.90
1005;DHT22;491;53.480;10.174;2022-11-15T05:27:31;6.60;99.90
1005;DHT22;491;53.480;10.174;2022-11-15T05:29:56;6.60;99.90
1005;DHT22;491;53.480;10.174;2022-11-15T05:32:22;6.70;99.90
1005;DHT22;491;53.480;10.174;2022-11-15T05:34:47;6.70;99.90
1005;DHT22;491;53.480;10.174;2022-11-15T05:37:13;6.80;99.90
1005;DHT22;491;53.480;10.174;2022-11-15T05:39:39;6.80;99.90
1005;DHT22;491;53.480;10.174;2022-11-15T05:42:11;6.70;99.90
1005;DHT22;491;53.480;10.174;2022-11-15T05:44:40;6.70;99.90
1005;DHT22;491;53.480;10.174;2022-11-15T05:47:08;6.80;99.90
1005;DHT22;491;53.480;10.174;2022-11-15T05:49:38;6.80;99.90
1005;DHT22;491;53.480;10.174;2022-11-15T05:52:06;6.70;99.90
1005;DHT22;491;53.480;10.174;2022-11-15T05:54:33;6.70;99.90
1005;DHT22;491;53.480;10.174;2022-11-15T05:56:59;6.60;99.90
1005;DHT22;491;53.480;10.174;2022-11-15T05:59:25;6.70;99.90
1005;DHT22;491;53.480;10.174;2022-11-15T06:01:53;6.60;99.90
1005;DHT22;491;53.480;10.174;2022-11-15T06:04:18;6.60;99.90
1005;DHT22;491;53.480;10.174;2022-11-15T06:06:44;6.50;99.90
1005;DHT22;491;53.480;10.174;2022-11-15T06:09:09;6.60;99.90
1005;DHT22;491;53.480;10.174;2022-11-15T06:11:35;6.60;99.90
1005;DHT22;491;53.480;10.174;2022-11-15T06:14:01;6.60;99.90
1005;DHT22;491;53.480;10.174;2022-11-15T06:16:27;6.60;99.90
1005;DHT22;491;53.480;10.174;2022-11-15T06:18:55;6.70;99.90
1005;DHT22;491;53.480;10.174;2022-11-15T06:21:21;6.60;99.90
1005;DHT22;491;53.480;10.174;2022-11-15T06:23:47;6.70;99.90
1005;DHT22;491;53.480;10.174;2022-11-15T06:26:13;6.60;99.90
1005;DHT22;491;53.480;10.174;2022-11-15T06:28:38;6.60;99.90
1005;DHT22;491;53.480;10.174;2022-11-15T06:31:05;6.70;99.90
1005;DHT22;491;53.480;10.174;2022-11-15T06:33:31;6.70;99.90
1005;DHT22;491;53.480;10.174;2022-11-15T06:36:03;6.70;99.90
1005;DHT22;491;53.480;10.174;2022-11-15T06:38:29;6.70;99.90
1005;DHT22;491;53.480;10.174;2022-11-15T06:40:54;6.70;99.90
1005;DHT22;491;53.480;10.174;2022-11-15T06:43:20;6.70;99.90
1005;DHT22;491;53.480;10.174;2022-11-15T06:45:46;6.60;99.90
1005;DHT22;491;53.480;10.174;2022-11-15T06:48:11;6.60;99.90
1005;DHT22;491;53.480;10.174;2022-11-15T06:50:37;6.70;99.90
1005;DHT22;491;53.480;10.174;2022-11-15T06:53:05;6.70;99.90
1005;DHT22;491;53.480;10.174;2022-11-15T06:55:31;6.70;99.90
1005;DHT22;491;53.480;10.174;2022-11-15T06:57:56;6.70;99.90
1005;DHT22;491;53.480;10.174;2022-11-15T07:00:22;6.70;99.90
1005;DHT22;491;53.480;10.174;2022-11-15T07:02:48;6.70;99.90
1005;DHT22;491;53.480;10.174;2022-11-15T07:05:14;6.70;99.90
1005;DHT22;491;53.480;10.174;2022-11-15T07:07:40;6.70;99.90
1005;DHT22;491;53.480;10.174;2022-11-15T07:10:06;6.80;99.90
1005;DHT22;491;53.480;10.174;2022-11-15T07:12:32;6.80;99.90
1005;DHT22;491;53.480;10.174;2022-11-15T07:14:58;6.80;99.90
1005;DHT22;491;53.480;10.174;2022-11-15T07:17:23;6.80;99.90
1005;DHT22;491;53.480;10.174;2022-11-15T07:19:49;6.80;99.90
1005;DHT22;491;53.480;10.174;2022-11-15T07:22:24;6.90;99.90
1005;DHT22;491;53.480;10.174;2022-11-15T07:24:49;7.00;99.90
1005;DHT22;491;53.480;10.174;2022-11-15T07:27:15;6.90;99.90
1005;DHT22;491;53.480;10.174;2022-11-15T07:29:40;7.00;99.90
1005;DHT22;491;53.480;10.174;2022-11-15T07:32:06;7.00;99.90
1005;DHT22;491;53.480;10.174;2022-11-15T07:34:31;6.90;99.90
1005;DHT22;491;53.480;10.174;2022-11-15T07:36:57;6.90;99.90
1005;DHT22;491;53.480;10.174;2022-11-15T07:39:22;7.00;99.90
1005;DHT22;491;53.480;10.174;2022-11-15T07:41:48;7.00;99.90
1005;DHT22;491;53.480;10.174;2022-11-15T07:44:14;7.00;99.90
1005;DHT22;491;53.480;10.174;2022-11-15T07:46:40;7.00;99.90
1005;DHT22;491;53.480;10.174;2022-11-15T07:49:05;7.00;99.90
1005;DHT22;491;53.480;10.174;2022-11-15T07:51:31;7.10;99.90
1005;DHT22;491;53.480;10.174;2022-11-15T07:53:56;7.00;99.90
1005;DHT22;491;53.480;10.174;2022-11-15T07:56:22;7.10;99.90
1005;DHT22;491;53.480;10.174;2022-11-15T07:58:47;7.10;99.90
1005;DHT22;491;53.480;10.174;2022-11-15T08:01:13;7.10;99.90
1005;DHT22;491;53.480;10.174;2022-11-15T08:03:41;7.10;99.90
1005;DHT22;491;53.480;10.174;2022-11-15T08:06:07;7.10;99.90
1005;DHT22;491;53.480;10.174;2022-11-15T08:08:32;7.10;99.90
1005;DHT22;491;53.480;10.174;2022-11-15T08:10:58;7.10;99.90
1005;DHT22;491;53.480;10.174;2022-11-15T08:13:24;7.20;99.90
1005;DHT22;491;53.480;10.174;2022-11-15T08:15:49;7.20;99.90
1005;DHT22;491;53.480;10.174;2022-11-15T08:18:16;7.20;99.90
1005;DHT22;491;53.480;10.174;2022-11-15T08:20:42;7.30;99.90
1005;DHT22;491;53.480;10.174;2022-11-15T08:23:10;7.20;99.90
1005;DHT22;491;53.480;10.174;2022-11-15T08:25:37;7.20;99.90
1005;DHT22;491;53.480;10.174;2022-11-15T08:28:05;7.30;99.90
1005;DHT22;491;53.480;10.174;2022-11-15T08:30:33;7.20;99.90
1005;DHT22;491;53.480;10.174;2022-11-15T08:32:59;7.30;99.90
1005;DHT22;491;53.480;10.174;2022-11-15T08:35:25;7.20;99.90
1005;DHT22;491;53.480;10.174;2022-11-15T08:37:52;7.30;99.90
1005;DHT22;491;53.480;10.174;2022-11-15T08:40:18;7.30;99.90
1005;DHT22;491;53.480;10.174;2022-11-15T08:42:46;7.30;99.90
1005;DHT22;491;53.480;10.174;2022-11-15T08:45:12;7.30;99.90
1005;DHT22;491;53.480;10.174;2022-11-15T08:47:38;7.40;99.90
1005;DHT22;491;53.480;10.174;2022-11-15T08:50:04;7.60;99.90
1005;DHT22;491;53.480;10.174;2022-11-15T08:52:29;7.70;99.90
1005;DHT22;491;53.480;10.174;2022-11-15T08:54:55;8.20;99.90
1005;DHT22;491;53.480;10.174;2022-11-15T08:57:20;9.40;99.90
1005;DHT22;491;53.480;10.174;2022-11-15T08:59:46;9.80;99.90
1005;DHT22;491;53.480;10.174;2022-11-15T09:02:15;10.90;99.90
1005;DHT22;491;53.480;10.174;2022-11-15T09:04:41;11.10;1.00
1005;DHT22;491;53.480;10.174;2022-11-15T09:07:08;10.70;1.00
1005;DHT22;491;53.480;10.174;2022-11-15T09:09:34;11.00;1.00
1005;DHT22;491;53.480;10.174;2022-11-15T09:11:59;11.90;1.00
1005;DHT22;491;53.480;10.174;2022-11-15T09:14:25;12.40;99.90
1005;DHT22;491;53.480;10.174;2022-11-15T09:16:50;12.50;1.00
1005;DHT22;491;53.480;10.174;2022-11-15T09:19:15;12.60;99.90
1005;DHT22;491;53.480;10.174;2022-11-15T09:21:41;13.40;99.90
1005;DHT22;491;53.480;10.174;2022-11-15T09:24:07;13.80;1.00
1005;DHT22;491;53.480;10.174;2022-11-15T09:26:32;13.60;1.00
1005;DHT22;491;53.480;10.174;2022-11-15T09:28:58;13.90;99.90
1005;DHT22;491;53.480;10.174;2022-11-15T09:31:23;13.50;99.90
1005;DHT22;491;53.480;10.174;2022-11-15T09:33:49;13.10;1.00
1005;DHT22;491;53.480;10.174;2022-11-15T09:36:15;11.70;99.90
1005;DHT22;491;53.480;10.174;2022-11-15T09:38:42;10.70;1.00
1005;DHT22;491;53.480;10.174;2022-11-15T09:44:08;10.00;99.90
1005;DHT22;491;53.480;10.174;2022-11-15T09:49:08;10.00;99.90
1005;DHT22;491;53.480;10.174;2022-11-15T09:51:36;9.90;99.90
1005;DHT22;491;53.480;10.174;2022-11-15T09:54:27;10.00;99.90
1005;DHT22;491;53.480;10.174;2022-11-15T09:56:56;9.90;99.90
1005;DHT22;491;53.480;10.174;2022-11-15T10:04:56;9.80;99.90
1005;DHT22;491;53.480;10.174;2022-11-15T10:10:31;9.80;99.90
1005;DHT22;491;53.480;10.174;2022-11-15T10:12:59;9.80;99.90
1005;DHT22;491;53.480;10.174;2022-11-15T10:15:24;9.90;99.90
1005;DHT22;491;53.480;10.174;2022-11-15T10:18:14;9.80;99.90
1005;DHT22;491;53.480;10.174;2022-11-15T10:20:58;9.80;99.90
1005;DHT22;491;53.480;10.174;2022-11-15T10:23:24;9.90;99.90
1005;DHT22;491;53.480;10.174;2022-11-15T10:26:00;9.90;99.90
1005;DHT22;491;53.480;10.174;2022-11-15T10:30:54;9.90;99.90
1005;DHT22;491;53.480;10.174;2022-11-15T10:33:39;9.90;99.90
1005;DHT22;491;53.480;10.174;2022-11-15T10:36:20;10.00;99.90
1005;DHT22;491;53.480;10.174;2022-11-15T10:43:46;10.20;99.90
1005;DHT22;491;53.480;10.174;2022-11-15T10:46:26;10.20;99.90
1005;DHT22;491;53.480;10.174;2022-11-15T10:48:52;10.10;99.90
1005;DHT22;491;53.480;10.174;2022-11-15T10:51:28;10.10;99.90
1005;DHT22;491;53.480;10.174;2022-11-15T10:53:57;10.10;99.90
1005;DHT22;491;53.480;10.174;2022-11-15T10:56:25;10.10;99.90
1005;DHT22;491;53.480;10.174;2022-11-15T10:58:54;10.20;99.90
1005;DHT22;491;53.480;10.174;2022-11-15T11:01:23;10.40;99.90
1005;DHT22;491;53.480;10.174;2022-11-15T11:04:06;10.50;99.90
1005;DHT22;491;53.480;10.174;2022-11-15T11:09:33;10.60;99.90
1005;DHT22;491;53.480;10.174;2022-11-15T11:11:59;10.70;99.90
1005;DHT22;491;53.480;10.174;2022-11-15T11:14:30;10.70;99.90
1005;DHT22;491;53.480;10.174;2022-11-15T11:28:39;10.60;99.90
1005;DHT22;491;53.480;10.174;2022-11-15T11:37:03;10.70;99.90
1005;DHT22;491;53.480;10.174;2022-11-15T11:42:53;10.90;99.90
1005;DHT22;491;53.480;10.174;2022-11-15T11:50:28;11.10;99.90
1005;DHT22;491;53.480;10.174;2022-11-15T11:53:03;11.20;99.90
1005;DHT22;491;53.480;10.174;2022-11-15T11:55:34;11.20;99.90
1005;DHT22;491;53.480;10.174;2022-11-15T12:01:25;11.30;99.90
1005;DHT22;491;53.480;10.174;2022-11-15T12:03:59;11.20;99.90
1005;DHT22;491;53.480;10.174;2022-11-15T12:06:38;11.30;99.90
1005;DHT22;491;53.480;10.174;2022-11-15T12:09:36;11.30;99.90
1005;DHT22;491;53.480;10.174;2022-11-15T12:15:04;11.40;99.90
1005;DHT22;491;53.480;10.174;2022-11-15T12:17:39;11.40;99.90
1005;DHT22;491;53.480;10.174;2022-11-15T12:20:23;11.40;99.90
1005;DHT22;491;53.480;10.174;2022-11-15T12:23:06;11.50;99.90
1005;DHT22;491;53.480;10.174;2022-11-15T12:25:55;11.50;99.90
1005;DHT22;491;53.480;10.174;2022-11-15T12:28:46;11.70;99.90
1005;DHT22;491;53.480;10.174;2022-11-15T12:31:39;11.80;99.90
1005;DHT22;491;53.480;10.174;2022-11-15T12:36:44;12.00;99.90
1005;DHT22;491;53.480;10.174;2022-11-15T12:39:14;12.00;99.90
1005;DHT22;491;53.480;10.174;2022-11-15T12:41:41;12.00;99.90
1005;DHT22;491;53.480;10.174;2022-11-15T12:44:12;12.00;99.90
1005;DHT22;491;53.480;10.174;2022-11-15T12:59:55;12.10;99.90
1005;DHT22;491;53.480;10.174;2022-11-15T13:02:35;12.00;99.90
1005;DHT22;491;53.480;10.174;2022-11-15T13:17:50;11.90;99.90
1005;DHT22;491;53.480;10.174;2022-11-15T13:20:25;12.00;99.90
1005;DHT22;491;53.480;10.174;2022-11-15T13:22:59;12.00;99.90
1005;DHT22;491;53.480;10.174;2022-11-15T13:30:53;12.00;99.90
1005;DHT22;491;53.480;10.174;2022-11-15T13:35:58;11.80;99.90
1005;DHT22;491;53.480;10.174;2022-11-15T13:40:50;11.80;99.90
1005;DHT22;491;53.480;10.174;2022-11-15T13:46:13;11.90;99.90
1005;DHT22;491;53.480;10.174;2022-11-15T13:48:40;12.00;99.90
1005;DHT22;491;53.480;10.174;2022-11-15T13:51:19;12.00;99.90
1005;DHT22;491;53.480;10.174;2022-11-15T13:53:53;11.90;99.90
1005;DHT22;491;53.480;10.174;2022-11-15T13:56:20;11.90;99.90
1005;DHT22;491;53.480;10.174;2022-11-15T13:58:46;11.90;99.90
1005;DHT22;491;53.480;10.174;2022-11-15T14:01:18;11.90;99.90
1005;DHT22;491;53.480;10.174;2022-11-15T14:03:57;11.90;99.90
1005;DHT22;491;53.480;10.174;2022-11-15T14:06:25;12.00;99.90
1005;DHT22;491;53.480;10.174;2022-11-15T14:11:36;11.80;99.90
1005;DHT22;491;53.480;10.174;2022-11-15T14:14:11;11.90;99.90
1005;DHT22;491;53.480;10.174;2022-11-15T14:16:43;11.90;99.90
1005;DHT22;491;53.480;10.174;2022-11-15T14:22:23;11.80;99.90
1005;DHT22;491;53.480;10.174;2022-11-15T14:25:18;11.80;99.90
1005;DHT22;491;53.480;10.174;2022-11-15T14:28:12;11.70;99.90
1005;DHT22;491;53.480;10.174;2022-11-15T14:30:39;11.60;99.90
1005;DHT22;491;53.480;10.174;2022-11-15T14:33:20;11.70;99.90
1005;DHT22;491;53.480;10.174;2022-11-15T14:35:47;11.60;99.90
1005;DHT22;491;53.480;10.174;2022-11-15T14:38:12;11.60;99.90
1005;DHT22;491;53.480;10.174;2022-11-15T14:40:38;11.50;99.90
1005;DHT22;491;53.480;10.174;2022-11-15T14:43:04;11.50;99.90
1005;DHT22;491;53.480;10.174;2022-11-15T14:45:32;11.50;99.90
1005;DHT22;491;53.480;10.174;2022-11-15T14:47:58;11.40;99.90
1005;DHT22;491;53.480;10.174;2022-11-15T14:50:23;11.40;99.90
1005;DHT22;491;53.480;10.174;2022-11-15T14:52:49;11.30;99.90
1005;DHT22;491;53.480;10.174;2022-11-15T14:55:19;11.30;99.90
1005;DHT22;491;53.480;10.174;2022-11-15T14:57:46;11.20;99.90
1005;DHT22;491;53.480;10.174;2022-11-15T15:00:12;11.10;99.90
1005;DHT22;491;53.480;10.174;2022-11-15T15:02:39;11.00;99.90
1005;DHT22;491;53.480;10.174;2022-11-15T15:05:30;10.90;99.90
1005;DHT22;491;53.480;10.174;2022-11-15T15:07:55;10.90;99.90
1005;DHT22;491;53.480;10.174;2022-11-15T15:10:21;10.80;99.90
1005;DHT22;491;53.480;10.174;2022-11-15T15:12:47;10.80;99.90
1005;DHT22;491;53.480;10.174;2022-11-15T15:15:16;10.70;99.90
1005;DHT22;491;53.480;10.174;2022-11-15T15:17:42;10.70;99.90
1005;DHT22;491;53.480;10.174;2022-11-15T15:20:08;10.60;99.90
1005;DHT22;491;53.480;10.174;2022-11-15T15:22:34;10.60;99.90
1005;DHT22;491;53.480;10.174;2022-11-15T15:24:59;10.60;99.90
1005;DHT22;491;53.480;10.174;2022-11-15T15:27:25;10.70;99.90
1005;DHT22;491;53.480;10.174;2022-11-15T15:29:50;10.60;99.90
1005;DHT22;491;53.480;10.174;2022-11-15T15:32:16;10.60;99.90
1005;DHT22;491;53.480;10.174;2022-11-15T15:34:41;10.60;99.90
1005;DHT22;491;53.480;10.174;2022-11-15T15:37:24;10.60;99.90
1005;DHT22;491;53.480;10.174;2022-11-15T15:39:55;10.50;99.90
1005;DHT22;491;53.480;10.174;2022-11-15T15:42:21;10.40;99.90
1005;DHT22;491;53.480;10.174;2022-11-15T15:44:51;10.50;99.90
1005;DHT22;491;53.480;10.174;2022-11-15T15:47:20;10.40;99.90
1005;DHT22;491;53.480;10.174;2022-11-15T15:49:46;10.40;99.90
1005;DHT22;491;53.480;10.174;2022-11-15T15:52:11;10.30;99.90
1005;DHT22;491;53.480;10.174;2022-11-15T15:54:37;10.30;99.90
1005;DHT22;491;53.480;10.174;2022-11-15T15:57:03;10.30;99.90
1005;DHT22;491;53.480;10.174;2022-11-15T15:59:30;10.30;99.90
1005;DHT22;491;53.480;10.174;2022-11-15T16:01:55;10.20;99.90
1005;DHT22;491;53.480;10.174;2022-11-15T16:04:21;10.20;99.90
1005;DHT22;491;53.480;10.174;2022-11-15T16:06:46;10.30;99.90
1005;DHT22;491;53.480;10.174;2022-11-15T16:09:14;10.30;99.90
1005;DHT22;491;53.480;10.174;2022-11-15T16:11:40;10.20;99.90
1005;DHT22;491;53.480;10.174;2022-11-15T16:14:07;10.20;99.90
1005;DHT22;491;53.480;10.174;2022-11-15T16:16:33;10.20;99.90
1005;DHT22;491;53.480;10.174;2022-11-15T16:18:59;10.20;99.90
1005;DHT22;491;53.480;10.174;2022-11-15T16:21:26;10.30;99.90
1005;DHT22;491;53.480;10.174;2022-11-15T16:23:51;10.20;99.90
1005;DHT22;491;53.480;10.174;2022-11-15T16:26:28;10.30;99.90
1005;DHT22;491;53.480;10.174;2022-11-15T16:28:54;10.20;99.90
1005;DHT22;491;53.480;10.174;2022-11-15T16:31:20;10.20;99.90
1005;DHT22;491;53.480;10.174;2022-11-15T16:33:48;10.20;99.90
1005;DHT22;491;53.480;10.174;2022-11-15T16:36:22;10.20;99.90
1005;DHT22;491;53.480;10.174;2022-11-15T16:38:48;10.20;99.90
1005;DHT22;491;53.480;10.174;2022-11-15T16:41:15;10.40;99.90
1005;DHT22;491;53.480;10.174;2022-11-15T16:43:49;10.40;99.90
1005;DHT22;491;53.480;10.174;2022-11-15T16:46:23;10.50;99.90
1005;DHT22;491;53.480;10.174;2022-11-15T16:48:49;10.60;99.90
1005;DHT22;491;53.480;10.174;2022-11-15T16:51:15;10.60;99.90
1005;DHT22;491;53.480;10.174;2022-11-15T16:53:41;10.70;99.90
1005;DHT22;491;53.480;10.174;2022-11-15T16:56:25;10.60;99.90
1005;DHT22;491;53.480;10.174;2022-11-15T16:58:52;10.70;99.90
1005;DHT22;491;53.480;10.174;2022-11-15T17:01:24;10.60;99.90
1005;DHT22;491;53.480;10.174;2022-11-15T17:03:50;10.70;99.90
1005;DHT22;491;53.480;10.174;2022-11-15T17:06:16;10.70;99.90
1005;DHT22;491;53.480;10.174;2022-11-15T17:08:43;10.70;99.90
1005;DHT22;491;53.480;10.174;2022-11-15T17:11:12;10.70;99.90
1005;DHT22;491;53.480;10.174;2022-11-15T17:13:38;10.70;99.90
1005;DHT22;491;53.480;10.174;2022-11-15T17:16:11;10.60;99.90
1005;DHT22;491;53.480;10.174;2022-11-15T17:18:39;10.50;99.90
1005;DHT22;491;53.480;10.174;2022-11-15T17:21:20;10.70;99.90
1005;DHT22;491;53.480;10.174;2022-11-15T17:23:47;10.60;99.90
1005;DHT22;491;53.480;10.174;2022-11-15T17:26:14;10.60;99.90
1005;DHT22;491;53.480;10.174;2022-11-15T17:28:40;10.70;99.90
1005;DHT22;491;53.480;10.174;2022-11-15T17:31:07;10.70;99.90
1005;DHT22;491;53.480;10.174;2022-11-15T17:33:33;10.60;99.90
1005;DHT22;491;53.480;10.174;2022-11-15T17:36:01;10.60;99.90
1005;DHT22;491;53.480;10.174;2022-11-15T17:38:27;10.60;99.90
1005;DHT22;491;53.480;10.174;2022-11-15T17:41:13;10.60;99.90
1005;DHT22;491;53.480;10.174;2022-11-15T17:43:39;10.60;99.90
1005;DHT22;491;53.480;10.174;2022-11-15T17:46:12;10.60;99.90
1005;DHT22;491;53.480;10.174;2022-11-15T17:48:37;10.60;99.90
1005;DHT22;491;53.480;10.174;2022-11-15T17:51:05;10.50;99.90
1005;DHT22;491;53.480;10.174;2022-11-15T17:53:35;10.50;99.90
1005;DHT22;491;53.480;10.174;2022-11-15T17:56:02;10.50;99.90
1005;DHT22;491;53.480;10.174;2022-11-15T17:58:29;10.40;99.90
1005;DHT22;491;53.480;10.174;2022-11-15T18:00:57;10.40;99.90
1005;DHT22;491;53.480;10.174;2022-11-15T18:03:28;10.40;99.90
1005;DHT22;491;53.480;10.174;2022-11-15T18:05:54;10.40;99.90
1005;DHT22;491;53.480;10.174;2022-11-15T18:08:22;10.40;99.90
1005;DHT22;491;53.480;10.174;2022-11-15T18:10:59;10.40;99.90
1005;DHT22;491;53.480;10.174;2022-11-15T18:13:28;10.40;99.90
1005;DHT22;491;53.480;10.174;2022-11-15T18:15:57;10.40;99.90
1005;DHT22;491;53.480;10.174;2022-11-15T18:18:27;10.40;99.90
1005;DHT22;491;53.480;10.174;2022-11-15T18:21:06;10.50;99.90
1005;DHT22;491;53.480;10.174;2022-11-15T18:23:34;10.50;99.90
1005;DHT22;491;53.480;10.174;2022-11-15T18:26:03;10.60;99.90
1005;DHT22;491;53.480;10.174;2022-11-15T18:28:34;10.60;99.90
1005;DHT22;491;53.480;10.174;2022-11-15T18:31:01;10.60;99.90
1005;DHT22;491;53.480;10.174;2022-11-15T18:33:32;10.70;99.90